Vårt webkamera more information My webcam


webkamera på Randaberg more information webcam on Randaberg


Lynradar more information blitzortung!


Nedbørsradar  rain snow radar


Besøk vår andre værside:

Alternativ webside

Alternativ mobil

Regnskvett RandabergWebsite of another weatherstation



Ikke nødvendig med spesiell oppmerksomhet.    Det er ingen advarsler

Nære METAR rapporter

   
ENHD - Haugesund
oppdatert: 20-03-2019 04:20
få skyer  
få skyer  
   Vind: VSV 5.7 m/s
Vind: VSV 5.7 m/s
Temperatur: 7°C
Wind Chill: 3°C
Duggpunkt: 6°C
Fuktighet: 93%
Barometer: 1017 hPa
Skyer: få skyer
Sikt: 5 km
Skydetaljer: få skyer 1493.5 m
ENHD 200320Z AUTO 25011KT 5000 FEW049/// 07/06 Q1017
ENZV - Randaberg
oppdatert: 20-03-2019 03:50
For det meste skyet  
For det meste skyet  
   Vind: VSV 5.1 m/s
Vind: VSV 5.1 m/s
Temperatur: 6°C
Wind Chill: 3°C
Duggpunkt: 6°C
Fuktighet: 100%
Barometer: 1018 hPa
Skyer: For det meste skyet
Sikt: 7 km
Skydetaljer: få skyer 213.4 m,
Delvis Skyet 396.2 m,
For det meste skyet 1432.6 m
ENZV 200250Z 25010KT 7000 FEW007 SCT013 BKN047 06/06 Q1018
ENBR - Bergen
oppdatert: 20-03-2019 03:50
Delvis Skyet  
Delvis Skyet  
   Vind: VSV 3.6 m/s
Vind: VSV 3.6 m/s
Temperatur: 6°C
Wind Chill: 3°C
Duggpunkt: 5°C
Fuktighet: 93%
Barometer: 1015 hPa
Skyer: Delvis Skyet
Sikt: More than 10 km
Skydetaljer: få skyer 182.9 m,
Delvis Skyet 762 m
ENBR 200250Z 24007KT 210V270 9999 FEW006 SCT025 06/05 Q1015 RMK WIND 1200FT 26015KT
ENCN - Kristiansand
oppdatert: 20-03-2019 04:20
Overskyet  
Overskyet  
   Vind: SSV 4.6 m/s
Vind: SSV 4.6 m/s
Temperatur: 6°C
Wind Chill: 3°C
Duggpunkt: 6°C
Fuktighet: 100%
Barometer: 1017 hPa
Skyer: Overskyet
Sikt: More than 10 km
Skydetaljer: Overskyet 213.4 m
ENCN 200320Z AUTO 21009KT 9999 OVC007/// 06/06 Q1017
ENGM - Oslo
oppdatert: 20-03-2019 04:20
Klart  
Klart  
   Vind: SV 4.6 m/s
Vind: SV 4.6 m/s
Temperatur: 1°C
Wind Chill: -3°C
Duggpunkt: -2°C
Fuktighet: 81%
Barometer: 1013 hPa
Sikt: More than 10 km
Skydetaljer: Klart
ENGM 200320Z 22009KT CAVOK 01/M02 Q1013
ENVA - Trondheim
oppdatert: 20-03-2019 04:20
yr, For det meste skyet  
yr, For det meste skyet  
   Vind: VSV 9.3 m/s
Vind: VSV 9.3 m/s
Temperatur: 5°C
Wind Chill: 0°C
Duggpunkt: 2°C
Fuktighet: 81%
Barometer: 1007 hPa
Skyer: For det meste skyet
Sikt: More than 10 km
Skydetaljer: få skyer 487.7 m,
Delvis Skyet 914.4 m,
For det meste skyet 1188.7 m
ENVA 200320Z 25018KT 9999 DZ FEW016 SCT030 BKN039 05/02 Q1007 REDZ RMK WIND 670FT 25019G40KT

Script utviklet av  Saratoga-weather.org Tilrettelagt for malen av  Weerstation Leuven

Du finner vår vær info også på:

European Weather Network

WeatherCloud

Weather Underground

Citizen Weather Observer Program (CWOP)

Utstyr vi bruker:

Værstsjon
Oregon scientific WMR 300

Værprogram
Meteobridge

Oregon scientific WMR 300

Meteobridge